createdAt,value
2017-11-09T04:31:14.032Z,80.38
2017-11-09T04:33:41.618Z,81.63
2017-11-09T04:36:09.223Z,87.70
2017-11-09T04:38:37.607Z,90.18
2017-11-09T04:41:05.206Z,89.40
2017-11-09T04:43:32.841Z,85.85
2017-11-09T04:46:00.427Z,80.82
2017-11-09T04:48:28.035Z,77.78
2017-11-09T04:50:56.411Z,76.32
2017-11-09T04:53:24.787Z,76.53
2017-11-09T04:55:53.138Z,77.00
2017-11-09T04:58:20.827Z,83.05
2017-11-09T05:00:49.178Z,79.00
2017-11-09T05:03:16.771Z,78.12
2017-11-09T05:05:44.407Z,86.40
2017-11-09T05:08:12.802Z,77.30
2017-11-09T05:10:41.187Z,83.60
2017-11-09T05:13:08.798Z,88.65
2017-11-09T05:15:36.378Z,82.60
2017-11-09T05:18:04.057Z,86.90
2017-11-09T05:20:32.430Z,91.95
2017-11-09T05:23:00.807Z,83.97
2017-11-09T05:25:29.212Z,87.75
2017-11-09T05:27:56.846Z,89.20
2017-11-09T05:30:25.196Z,89.87
2017-11-09T05:32:53.618Z,86.87
2017-11-09T05:35:21.198Z,87.95
2017-11-09T05:37:48.820Z,83.55
2017-11-09T05:40:17.241Z,82.97
2017-11-09T05:42:44.827Z,84.43
2017-11-09T05:45:12.520Z,78.53
2017-11-09T05:47:40.896Z,81.47
2017-11-09T05:50:09.262Z,77.35
2017-11-09T05:52:37.614Z,72.32
2017-11-09T05:55:05.308Z,69.03
2017-11-09T05:57:33.686Z,71.22
2017-11-09T06:00:02.039Z,71.20
2017-11-09T06:02:29.651Z,75.65
2017-11-09T06:04:57.234Z,74.82
2017-11-09T06:07:24.843Z,73.55
2017-11-09T06:09:53.219Z,71.85
2017-11-09T06:12:21.572Z,73.57
2017-11-09T06:14:49.207Z,80.45
2017-11-09T06:17:16.794Z,74.03
2017-11-09T06:19:44.481Z,78.82
2017-11-09T06:22:12.109Z,89.25
2017-11-09T06:24:40.515Z,82.28
2017-11-09T06:27:08.891Z,89.13
2017-11-09T06:29:37.267Z,94.43
2017-11-09T06:32:05.619Z,97.45
2017-11-09T06:34:33.307Z,96.57
2017-11-09T06:37:01.691Z,98.50
2017-11-09T06:39:29.331Z,97.50
2017-11-09T06:41:57.723Z,99.50
2017-11-09T06:44:25.379Z,91.07
2017-11-09T06:46:53.751Z,99.95
2017-11-09T06:49:22.111Z,103.43
2017-11-09T06:51:49.794Z,103.43
2017-11-09T06:54:18.373Z,109.05
2017-11-09T06:56:46.785Z,100.22
2017-11-09T06:59:14.372Z,94.37
2017-11-09T07:01:41.979Z,95.65
2017-11-09T07:04:09.571Z,92.05
2017-11-09T07:06:37.183Z,93.00
2017-11-09T07:09:05.537Z,99.15
2017-11-09T07:11:33.174Z,99.03
2017-11-09T07:14:00.760Z,95.95
2017-11-09T07:16:28.347Z,101.10
2017-11-09T07:18:56.827Z,91.40
2017-11-09T07:21:24.496Z,93.47
2017-11-09T07:23:52.100Z,89.90
2017-11-09T07:26:19.747Z,107.47
2017-11-09T07:28:47.335Z,101.50
2017-11-09T07:31:14.925Z,108.12
2017-11-09T07:33:43.318Z,97.82
2017-11-09T07:36:10.907Z,96.90
2017-11-09T07:38:38.499Z,99.50
2017-11-09T07:41:06.183Z,96.12
2017-11-09T07:43:34.535Z,107.87
2017-11-09T07:46:02.216Z,107.12
2017-11-09T07:48:30.606Z,94.75
2017-11-09T07:50:58.206Z,97.15
2017-11-09T07:53:25.818Z,98.60
2017-11-09T07:55:54.299Z,98.03
2017-11-09T07:58:22.650Z,95.00
2017-11-09T08:00:50.240Z,98.85
2017-11-09T08:03:17.852Z,92.97
2017-11-09T08:05:45.551Z,91.72
2017-11-09T08:08:13.895Z,84.47
2017-11-09T08:10:41.588Z,86.85
2017-11-09T08:13:09.185Z,87.82
2017-11-09T08:15:36.772Z,82.53
2017-11-09T08:18:04.412Z,81.72
2017-11-09T08:20:31.998Z,74.85
2017-11-09T08:22:59.686Z,81.45
2017-11-09T08:25:29.775Z,88.75
2017-11-09T08:28:14.301Z,87.85
2017-11-09T08:30:45.360Z,96.40
2017-11-09T08:33:13.673Z,101.00
2017-11-09T08:35:42.028Z,99.37
2017-11-09T08:38:09.625Z,105.60
2017-11-09T08:40:37.268Z,107.80
2017-11-09T08:43:05.648Z,104.18
2017-11-09T08:45:34.035Z,106.47
2017-11-09T08:48:01.693Z,110.95
2017-11-09T08:50:29.347Z,107.60
2017-11-09T08:52:57.735Z,108.40
2017-11-09T08:55:25.327Z,105.55
2017-11-09T08:57:52.928Z,95.32
2017-11-09T09:00:20.576Z,98.22
2017-11-09T09:02:48.258Z,98.28
2017-11-09T09:05:16.607Z,81.35
2017-11-09T09:07:44.305Z,87.03
2017-11-09T09:10:12.660Z,76.97
2017-11-09T09:12:41.019Z,73.22
2017-11-09T09:15:08.656Z,79.50
2017-11-09T09:17:36.247Z,85.10
2017-11-09T09:20:03.843Z,82.03
2017-11-09T09:25:26.533Z,71.18
2017-11-09T09:27:56.873Z,66.82
2017-11-09T09:30:24.483Z,60.70
2017-11-09T09:33:12.063Z,60.65
2017-11-09T09:35:46.225Z,60.20
2017-11-09T09:38:31.154Z,59.72
2017-11-09T09:40:58.755Z,46.97
2017-11-09T09:43:26.383Z,49.15
2017-11-09T09:45:53.972Z,46.72
2017-11-09T09:48:21.559Z,44.83
2017-11-09T09:50:49.195Z,48.40
2017-11-09T09:53:16.839Z,39.45
2017-11-09T09:55:45.214Z,44.42
2017-11-09T09:58:13.578Z,44.63
2017-11-09T10:00:41.942Z,37.65
2017-11-09T10:03:09.579Z,41.33
2017-11-09T10:05:37.168Z,40.50
2017-11-09T10:08:04.750Z,37.25
2017-11-09T10:10:33.139Z,37.65
2017-11-09T10:13:00.783Z,38.70
2017-11-09T10:15:29.167Z,33.55
2017-11-09T10:17:57.572Z,33.47
2017-11-09T10:20:25.191Z,35.40
2017-11-09T10:22:53.543Z,34.65
2017-11-09T10:25:21.239Z,35.13
2017-11-09T10:27:49.610Z,35.83
2017-11-09T10:30:17.992Z,34.78
2017-11-09T10:32:46.481Z,34.90
2017-11-09T10:35:14.080Z,37.50
2017-11-09T10:37:41.672Z,34.67
2017-11-09T10:40:09.295Z,35.45
2017-11-09T10:42:36.893Z,35.15
2017-11-09T10:45:04.475Z,33.83
2017-11-09T10:47:32.098Z,33.38
2017-11-09T10:49:59.678Z,32.30
2017-11-09T10:52:28.059Z,29.27
2017-11-09T10:54:56.427Z,30.08
2017-11-09T10:57:24.816Z,31.08
2017-11-09T10:59:53.345Z,31.48
2017-11-09T11:02:20.927Z,30.48
2017-11-09T11:04:48.502Z,30.42
2017-11-09T11:07:16.167Z,28.40
2017-11-09T11:09:44.519Z,30.67
2017-11-09T11:12:12.107Z,26.92
2017-11-09T11:14:40.582Z,30.23
2017-11-09T11:17:08.964Z,30.40
2017-11-09T11:19:37.314Z,29.12
2017-11-09T11:22:06.942Z,30.95
2017-11-09T11:24:35.291Z,28.75
2017-11-09T11:27:02.887Z,27.10
2017-11-09T11:29:31.291Z,23.52
2017-11-09T11:31:58.876Z,25.45
2017-11-09T11:34:26.454Z,23.62
2017-11-09T11:36:54.089Z,25.37
2017-11-09T11:39:21.672Z,22.85
2017-11-09T11:41:49.262Z,27.05
2017-11-09T11:44:16.906Z,26.80
2017-11-09T11:46:44.510Z,29.73
2017-11-09T11:49:12.100Z,30.88
2017-11-09T11:51:39.723Z,26.45
2017-11-09T11:54:07.307Z,24.15
2017-11-09T11:56:34.882Z,27.35
2017-11-09T11:59:02.487Z,26.58
2017-11-09T12:01:30.075Z,27.10
2017-11-09T12:03:57.675Z,24.50
2017-11-09T12:06:25.259Z,26.25
2017-11-09T12:08:52.880Z,28.42
2017-11-09T12:11:20.459Z,30.33
2017-11-09T12:13:48.811Z,36.72
2017-11-09T12:16:16.438Z,35.45
2017-11-09T12:18:44.018Z,32.05
2017-11-09T12:21:11.598Z,28.38
2017-11-09T12:23:39.236Z,28.23
2017-11-09T12:26:06.827Z,27.10
2017-11-09T12:28:35.177Z,34.53
2017-11-09T12:31:02.818Z,24.25
2017-11-09T12:33:30.407Z,26.55
2017-11-09T12:35:58.010Z,27.80
2017-11-09T12:38:25.640Z,26.77
2017-11-09T12:40:53.227Z,25.33
2017-11-09T12:43:20.815Z,22.37
2017-11-09T12:45:48.446Z,23.48
2017-11-09T12:48:16.024Z,23.25
2017-11-09T12:50:43.607Z,22.08
2017-11-09T12:53:11.983Z,22.65
2017-11-09T12:55:40.338Z,21.87
2017-11-09T12:58:07.918Z,21.52
2017-11-09T13:00:35.538Z,22.85
2017-11-09T13:03:03.118Z,22.95
2017-11-09T13:05:30.748Z,23.33
2017-11-09T13:07:58.352Z,23.30
2017-11-09T13:10:25.939Z,24.05
2017-11-09T13:12:53.547Z,23.95
2017-11-09T13:15:21.136Z,26.83
2017-11-09T13:17:48.740Z,24.63
2017-11-09T13:20:16.406Z,22.62
2017-11-09T13:22:43.999Z,23.25
2017-11-09T13:25:11.619Z,24.33
2017-11-09T13:27:39.970Z,22.87
2017-11-09T13:30:07.559Z,24.90
2017-11-09T13:32:35.186Z,24.92
2017-11-09T13:35:02.763Z,26.20
2017-11-09T13:37:31.116Z,25.15
2017-11-09T13:39:58.719Z,28.20
2017-11-09T13:42:26.303Z,24.00
2017-11-09T13:44:53.904Z,23.62
2017-11-09T13:47:21.487Z,24.55
2017-11-09T13:49:49.891Z,25.17
2017-11-09T13:52:17.480Z,27.42
2017-11-09T13:54:45.058Z,31.75
2017-11-09T13:57:12.667Z,36.25
2017-11-09T13:59:40.251Z,31.90
2017-11-09T14:02:07.840Z,38.10
2017-11-09T14:04:36.233Z,34.10
2017-11-09T14:07:04.584Z,36.55
2017-11-09T14:09:32.195Z,34.00
2017-11-09T14:11:59.779Z,38.63
2017-11-09T14:14:27.360Z,30.62
2017-11-09T14:16:54.967Z,28.30
2017-11-09T14:19:22.627Z,34.30
2017-11-09T14:21:50.212Z,30.45
2017-11-09T14:24:17.800Z,34.63
2017-11-09T14:26:45.408Z,32.90
2017-11-09T14:29:13.020Z,29.75
2017-11-09T14:31:40.603Z,30.65
2017-11-09T14:34:08.947Z,28.08
2017-11-09T14:36:36.579Z,29.52
2017-11-09T14:39:04.167Z,27.83
2017-11-09T14:41:31.746Z,31.52
2017-11-09T14:44:00.120Z,32.88
2017-11-09T14:46:28.464Z,37.00
2017-11-09T14:48:56.839Z,35.63
2017-11-09T14:51:24.423Z,31.70
2017-11-09T14:53:52.778Z,30.40
2017-11-09T14:56:20.402Z,33.47
2017-11-09T14:58:47.983Z,32.60
2017-11-09T15:01:15.571Z,32.65
2017-11-09T15:03:43.175Z,33.95
2017-11-09T15:06:10.805Z,33.80
2017-11-09T15:08:42.987Z,34.10
2017-11-09T15:11:10.596Z,32.10
2017-11-09T15:13:38.183Z,34.42
2017-11-09T15:16:05.772Z,35.08
2017-11-09T15:18:33.402Z,33.75
2017-11-09T15:21:01.118Z,37.10
2017-11-09T15:23:28.698Z,37.72
2017-11-09T15:25:56.343Z,36.03
2017-11-09T15:28:23.959Z,38.17
2017-11-09T15:30:51.550Z,38.80
2017-11-09T15:33:19.176Z,39.00
2017-11-09T15:35:53.556Z,38.35
2017-11-09T15:38:21.247Z,35.42
2017-11-09T15:40:50.007Z,36.53
2017-11-09T15:43:17.699Z,38.22
2017-11-09T15:45:46.074Z,37.33
2017-11-09T15:48:14.555Z,38.38
2017-11-09T15:50:43.196Z,35.67
2017-11-09T15:53:10.783Z,39.38
2017-11-09T15:55:38.507Z,41.67
2017-11-09T15:58:06.102Z,41.75
2017-11-09T16:00:33.789Z,39.38
2017-11-09T16:03:01.389Z,41.37
2017-11-09T16:05:28.975Z,39.72
2017-11-09T16:07:56.658Z,45.03
2017-11-09T16:10:25.034Z,40.95
2017-11-09T16:12:53.414Z,42.42
2017-11-09T16:15:21.788Z,48.40
2017-11-09T16:17:50.138Z,42.67
2017-11-09T16:20:17.823Z,40.78
2017-11-09T16:22:46.176Z,40.92
2017-11-09T16:25:13.862Z,41.00
2017-11-09T16:27:42.234Z,43.95
2017-11-09T16:30:10.588Z,44.40
2017-11-09T16:32:38.289Z,46.65
2017-11-09T16:35:05.932Z,45.00
2017-11-09T16:37:34.288Z,44.38
2017-11-09T16:40:01.873Z,41.95
2017-11-09T16:42:36.079Z,45.75
2017-11-09T16:45:03.751Z,44.88
2017-11-09T16:47:32.157Z,48.03
2017-11-09T16:49:59.788Z,41.70
2017-11-09T16:52:28.217Z,44.08
2017-11-09T16:54:55.931Z,46.72
2017-11-09T16:57:24.410Z,41.90
2017-11-09T16:59:52.790Z,44.15
2017-11-09T17:02:21.217Z,47.55
2017-11-09T17:04:48.840Z,46.67
2017-11-09T17:07:32.025Z,51.42
2017-11-09T17:09:59.651Z,53.78
2017-11-09T17:12:27.239Z,53.97
2017-11-09T17:15:00.919Z,56.90
2017-11-09T17:17:28.506Z,56.03
2017-11-09T17:19:56.188Z,54.25
2017-11-09T17:22:24.535Z,53.92
2017-11-09T17:24:53.630Z,62.30
2017-11-09T17:27:21.230Z,57.70
2017-11-09T17:29:48.979Z,57.25
2017-11-09T17:32:17.844Z,60.67
2017-11-09T17:34:45.583Z,58.45
2017-11-09T17:37:13.380Z,55.88
2017-11-09T17:39:41.964Z,58.40
2017-11-09T17:42:14.471Z,63.28
2017-11-09T17:44:42.151Z,59.92
2017-11-09T17:47:09.738Z,60.75
2017-11-09T17:49:37.376Z,57.58
2017-11-09T17:52:05.277Z,52.20
2017-11-09T17:54:33.657Z,50.75
2017-11-09T17:57:01.286Z,50.38
2017-11-09T17:59:29.865Z,54.63
2017-11-09T18:01:57.586Z,52.67
2017-11-09T18:04:26.000Z,52.92
2017-11-09T18:06:53.588Z,51.15
2017-11-09T18:09:21.185Z,54.97
2017-11-09T18:11:48.822Z,54.20
2017-11-09T18:14:16.407Z,53.03
2017-11-09T18:16:43.990Z,50.47
2017-11-09T18:19:11.603Z,46.00
2017-11-09T18:21:39.986Z,46.20
2017-11-09T18:24:08.359Z,47.60
2017-11-09T18:26:36.742Z,47.33
2017-11-09T18:29:05.115Z,45.75
2017-11-09T18:31:34.339Z,45.72
2017-11-09T18:34:01.927Z,47.97
2017-11-09T18:36:29.511Z,41.88
2017-11-09T18:38:57.146Z,44.13
2017-11-09T18:41:24.763Z,44.45
2017-11-09T18:43:52.420Z,45.67
2017-11-09T18:46:20.790Z,50.53
2017-11-09T18:48:49.144Z,46.00
2017-11-09T18:51:16.771Z,47.35
2017-11-09T18:53:44.391Z,47.15
2017-11-09T18:56:12.768Z,50.53
2017-11-09T18:58:42.923Z,49.92
2017-11-09T19:01:10.515Z,49.28
2017-11-09T19:03:39.739Z,49.20
2017-11-09T19:06:08.125Z,52.85
2017-11-09T19:08:35.719Z,47.80
2017-11-09T19:11:03.566Z,49.20
2017-11-09T19:13:32.128Z,52.28
2017-11-09T19:16:00.491Z,49.50
2017-11-09T19:18:28.863Z,50.33
2017-11-09T19:20:56.452Z,50.42
2017-11-09T19:23:24.094Z,48.60
2017-11-09T19:25:52.447Z,49.83
2017-11-09T19:28:20.813Z,46.50
2017-11-09T19:30:48.507Z,49.13
2017-11-09T19:33:16.859Z,48.10
2017-11-09T19:35:44.496Z,46.63
2017-11-09T19:38:12.133Z,47.22
2017-11-09T19:40:39.722Z,47.50
2017-11-09T19:43:07.328Z,48.55
2017-11-09T19:45:35.717Z,46.42
2017-11-09T19:48:03.363Z,50.42
2017-11-09T19:50:31.847Z,50.20
2017-11-09T19:53:00.198Z,50.17
2017-11-09T19:55:27.787Z,52.42
2017-11-09T19:57:56.255Z,54.83
2017-11-09T20:00:24.631Z,52.10
2017-11-09T20:02:52.983Z,51.45
2017-11-09T20:05:20.599Z,49.88
2017-11-09T20:07:48.268Z,56.63
2017-11-09T20:10:15.891Z,50.63
2017-11-09T20:12:44.372Z,46.17
2017-11-09T20:15:12.719Z,48.03
2017-11-09T20:17:40.303Z,47.22
2017-11-09T20:20:08.684Z,50.45
2017-11-09T20:22:37.067Z,47.78
2017-11-09T20:25:05.444Z,46.67
2017-11-09T20:27:33.795Z,48.80
2017-11-09T20:30:01.383Z,46.92
2017-11-09T20:32:28.998Z,47.30
2017-11-09T20:34:56.598Z,48.53
2017-11-09T20:37:24.224Z,51.22
2017-11-09T20:39:51.812Z,48.00
2017-11-09T20:42:19.416Z,48.40
2017-11-09T20:44:47.025Z,47.25
2017-11-09T20:47:15.383Z,46.37
2017-11-09T20:49:43.003Z,43.50
2017-11-09T20:52:13.188Z,43.10
2017-11-09T20:54:41.616Z,43.75
2017-11-09T20:57:09.270Z,42.17
2017-11-09T20:59:36.850Z,41.88
2017-11-09T21:02:04.490Z,43.33
2017-11-09T21:04:32.121Z,42.33
2017-11-09T21:06:59.711Z,41.65
2017-11-09T21:09:27.295Z,40.47
2017-11-09T21:11:54.903Z,38.95
2017-11-09T21:14:22.483Z,38.50
2017-11-09T21:16:50.092Z,38.55
2017-11-09T21:19:18.507Z,39.67
2017-11-09T21:21:46.091Z,36.03
2017-11-09T21:24:13.689Z,38.20
2017-11-09T21:26:42.120Z,38.70
2017-11-09T21:29:09.862Z,37.95
2017-11-09T21:31:37.449Z,38.72
2017-11-09T21:34:05.038Z,39.30
2017-11-09T21:36:32.667Z,36.72
2017-11-09T21:39:00.251Z,35.88
2017-11-09T21:41:27.831Z,35.70
2017-11-09T21:43:56.223Z,36.13
2017-11-09T21:46:23.803Z,35.15
2017-11-09T21:48:51.391Z,34.70
2017-11-09T21:51:18.990Z,35.50
2017-11-09T21:53:47.332Z,35.10
2017-11-09T21:56:14.959Z,35.40
2017-11-09T21:58:42.540Z,36.83
2017-11-09T22:01:10.123Z,36.95
2017-11-09T22:03:37.731Z,35.28
2017-11-09T22:06:05.316Z,36.92
2017-11-09T22:08:32.899Z,34.17
2017-11-09T22:11:00.512Z,34.25
2017-11-09T22:13:28.099Z,34.42
2017-11-09T22:15:55.751Z,33.00
2017-11-09T22:18:23.401Z,36.90
2017-11-09T22:20:51.746Z,37.05
2017-11-09T22:23:19.352Z,34.95
2017-11-09T22:25:46.935Z,35.75
2017-11-09T22:28:15.312Z,34.97
2017-11-09T22:30:43.666Z,36.10
2017-11-09T22:33:11.248Z,33.78
2017-11-09T22:35:39.623Z,34.35
2017-11-09T22:38:07.208Z,35.00
2017-11-09T22:40:34.792Z,36.08
2017-11-09T22:43:02.398Z,32.85
2017-11-09T22:45:30.750Z,34.72
2017-11-09T22:47:58.331Z,35.15
2017-11-09T22:50:26.709Z,35.28
2017-11-09T22:52:55.071Z,34.22
2017-11-09T22:55:22.655Z,35.55
2017-11-09T22:57:51.056Z,31.48
2017-11-09T23:00:18.647Z,31.17
2017-11-09T23:02:46.237Z,32.45
2017-11-09T23:05:13.908Z,30.98
2017-11-09T23:07:42.295Z,32.20
2017-11-09T23:10:10.681Z,31.92
2017-11-09T23:12:38.332Z,30.35
2017-11-09T23:15:06.748Z,31.08
2017-11-09T23:17:34.368Z,27.20
2017-11-09T23:20:02.824Z,29.20
2017-11-09T23:22:30.444Z,26.60
2017-11-09T23:24:58.065Z,27.48
2017-11-09T23:27:26.507Z,22.73
2017-11-09T23:29:54.132Z,25.20
